Time;durP1;ratioP1;P1;durP2;ratioP2;P2;SDS_P1;SDS_P2;PMS_P1;PMS_P2;Temp;Humidity;BMP_temperature;BMP_pressure;BME280_temperature;BME280_humidity;BME280_pressure;Samples;Min_cycle;Max_cycle;Signal;HPM_P1;HPM_P2
2022/06/27 00:01:14;;;;;;;12.07;7.38;;;18.00;99.90;;;;;;5069964;28;20048;-55
2022/06/27 00:03:39;;;;;;;10.32;7.30;;;17.90;99.90;;;;;;5069863;28;20123;-56
2022/06/27 00:06:05;;;;;;;13.80;7.57;;;17.90;99.90;;;;;;5069711;28;20569;-56
2022/06/27 00:08:31;;;;;;;12.45;7.45;;;17.90;99.90;;;;;;5070362;28;20040;-56
2022/06/27 00:10:56;;;;;;;12.02;7.60;;;17.80;99.90;;;;;;5048343;28;20511;-55
2022/06/27 00:13:22;;;;;;;9.57;7.28;;;17.80;99.90;;;;;;5069615;28;20078;-55
2022/06/27 00:15:48;;;;;;;10.57;7.57;;;17.80;99.90;;;;;;5069774;28;20044;-55
2022/06/27 00:18:14;;;;;;;10.02;8.05;;;17.90;99.90;;;;;;5070453;28;20385;-55
2022/06/27 00:20:39;;;;;;;12.75;7.70;;;17.80;99.90;;;;;;5069729;28;20495;-55
2022/06/27 00:23:05;;;;;;;12.43;7.88;;;18.00;99.90;;;;;;5049431;28;20467;-55
2022/06/27 00:25:31;;;;;;;10.98;7.53;;;18.00;99.90;;;;;;5069511;28;20044;-56
2022/06/27 00:27:56;;;;;;;11.75;7.15;;;17.90;99.90;;;;;;5069765;28;20052;-56
2022/06/27 00:30:22;;;;;;;9.95;6.70;;;18.10;99.90;;;;;;5069873;28;20056;-56
2022/06/27 00:32:48;;;;;;;7.40;6.60;;;18.10;99.90;;;;;;5069838;28;20102;-55
2022/06/27 00:35:15;;;;;;;13.13;7.05;;;19.00;99.90;;;;;;5050532;28;20049;-56
2022/06/27 00:37:40;;;;;;;11.52;7.10;;;18.50;99.90;;;;;;5069658;28;20044;-56
2022/06/27 00:40:07;;;;;;;12.25;7.05;;;18.00;99.90;;;;;;5069389;28;20525;-56
2022/06/27 00:42:33;;;;;;;11.73;6.90;;;18.10;99.90;;;;;;5070046;28;20051;-56
2022/06/27 00:44:59;;;;;;;12.10;7.55;;;18.10;99.90;;;;;;5071010;28;20067;-56
2022/06/27 00:47:25;;;;;;;9.63;7.57;;;18.10;99.90;;;;;;5052303;28;20053;-56
2022/06/27 00:49:51;;;;;;;8.48;6.63;;;18.10;99.90;;;;;;5068630;28;20048;-55
2022/06/27 00:52:17;;;;;;;12.05;6.63;;;18.10;99.90;;;;;;5073014;28;20124;-56
2022/06/27 00:54:46;;;;;;;10.52;6.22;;;18.00;99.90;;;;;;5072553;28;20052;-56
2022/06/27 00:57:14;;;;;;;10.57;7.32;;;17.80;99.90;;;;;;5073498;28;20057;-55
2022/06/27 00:59:40;;;;;;;7.85;6.53;;;18.00;99.90;;;;;;5072779;28;20044;-55
2022/06/27 01:02:07;;;;;;;19.08;7.75;;;17.90;99.90;;;;;;5063819;28;20044;-55
2022/06/27 01:04:35;;;;;;;8.40;6.95;;;17.90;99.90;;;;;;5071079;28;20052;-56
2022/06/27 01:07:01;;;;;;;12.32;8.00;;;17.90;99.90;;;;;;5053832;28;20475;-56
2022/06/27 01:09:26;;;;;;;10.15;7.40;;;17.90;99.90;;;;;;5055587;28;20119;-56
2022/06/27 01:11:52;;;;;;;13.27;7.70;;;18.80;99.90;;;;;;5051412;28;20366;-56
2022/06/27 01:14:19;;;;;;;11.55;8.20;;;17.90;99.90;;;;;;5072537;28;20055;-56
2022/06/27 01:16:45;;;;;;;14.57;8.05;;;17.80;99.90;;;;;;5071826;28;20048;-56
2022/06/27 01:19:13;;;;;;;10.35;8.25;;;17.80;99.90;;;;;;5059629;28;20128;-56
2022/06/27 01:21:54;;;;;;;11.70;8.20;;;17.60;99.90;;;;;;5052515;28;20374;-57
2022/06/27 01:24:23;;;;;;;13.77;8.57;;;17.80;99.90;;;;;;5052071;28;20528;-56
2022/06/27 01:26:49;;;;;;;10.32;8.13;;;17.70;99.90;;;;;;5052242;28;20044;-56
2022/06/27 01:29:16;;;;;;;11.43;8.70;;;17.60;99.90;;;;;;5052918;28;20045;-56
2022/06/27 01:31:43;;;;;;;14.60;8.27;;;17.70;99.90;;;;;;5061583;28;20080;-56
2022/06/27 01:34:09;;;;;;;12.18;9.02;;;17.70;99.90;;;;;;5072072;28;20052;-56
2022/06/27 01:36:42;;;;;;;10.40;7.97;;;17.70;99.90;;;;;;5088407;28;20359;-56
2022/06/27 01:39:15;;;;;;;11.80;8.45;;;17.80;99.90;;;;;;5092161;28;20097;-56
2022/06/27 01:41:44;;;;;;;12.88;8.95;;;17.80;99.90;;;;;;5092289;28;20415;-56
2022/06/27 01:44:10;;;;;;;12.60;9.18;;;17.80;99.90;;;;;;5092134;28;20044;-56
2022/06/27 01:46:48;;;;;;;12.05;8.85;;;17.80;99.90;;;;;;5092339;28;20059;-56
2022/06/27 01:49:15;;;;;;;18.02;8.90;;;17.90;99.90;;;;;;5092573;28;20408;-56
2022/06/27 01:51:42;;;;;;;14.35;9.35;;;17.90;99.90;;;;;;5091958;28;20050;-56
2022/06/27 01:54:10;;;;;;;15.25;9.98;;;17.90;99.90;;;;;;5073942;28;20399;-57
2022/06/27 01:56:36;;;;;;;12.82;9.45;;;18.00;99.90;;;;;;5090981;28;20048;-56
2022/06/27 01:59:02;;;;;;;14.48;10.35;;;17.90;99.90;;;;;;5091708;28;20044;-56
2022/06/27 02:01:28;;;;;;;13.73;9.95;;;17.90;99.90;;;;;;5091918;28;20415;-56
2022/06/27 02:03:56;;;;;;;14.32;9.65;;;17.80;99.90;;;;;;5091724;28;20052;-56
2022/06/27 02:06:23;;;;;;;10.82;8.90;;;17.90;99.90;;;;;;5092053;28;20123;-56
2022/06/27 02:08:51;;;;;;;15.23;9.65;;;17.70;99.90;;;;;;5091298;28;20036;-56
2022/06/27 02:11:17;;;;;;;16.95;9.63;;;17.90;99.90;;;;;;5071041;28;20052;-56
2022/06/27 02:13:44;;;;;;;18.33;11.13;;;17.80;99.90;;;;;;5072113;28;20131;-56
2022/06/27 02:16:15;;;;;;;12.02;10.27;;;17.80;99.90;;;;;;5071419;28;20056;-56
2022/06/27 02:18:41;;;;;;;15.63;9.45;;;17.80;99.90;;;;;;5071425;28;20060;-56
2022/06/27 02:21:11;;;;;;;12.98;10.50;;;17.80;99.90;;;;;;5070954;28;20041;-56
2022/06/27 02:23:37;;;;;;;15.23;10.77;;;17.70;99.90;;;;;;5071126;28;20053;-56
2022/06/27 02:26:05;;;;;;;14.85;10.60;;;17.70;99.90;;;;;;5070938;28;20056;-56
2022/06/27 02:28:32;;;;;;;15.38;11.68;;;17.70;99.90;;;;;;5071369;28;20407;-57
2022/06/27 02:30:58;;;;;;;15.35;11.48;;;16.80;99.90;;;;;;5070580;28;20404;-58
2022/06/27 02:33:32;;;;;;;15.30;11.90;;;17.60;99.90;;;;;;5071775;28;20129;-57
2022/06/27 02:36:00;;;;;;;17.58;13.40;;;17.50;99.90;;;;;;5070357;28;20052;-56
2022/06/27 02:38:28;;;;;;;14.07;12.32;;;17.50;99.90;;;;;;5070880;28;20127;-56
2022/06/27 02:40:54;;;;;;;16.50;12.95;;;17.50;99.90;;;;;;5070603;28;20137;-57
2022/06/27 02:43:21;;;;;;;15.20;12.32;;;17.40;99.90;;;;;;5071307;28;20091;-56
2022/06/27 02:45:47;;;;;;;17.38;13.15;;;17.40;99.90;;;;;;5070900;28;20119;-56
2022/06/27 02:48:16;;;;;;;15.88;12.63;;;17.60;99.90;;;;;;5071135;28;20547;-56
2022/06/27 02:50:46;;;;;;;14.95;12.55;;;17.60;99.90;;;;;;5070253;28;20045;-57
2022/06/27 02:53:18;;;;;;;17.17;14.38;;;17.40;99.90;;;;;;5071009;28;20056;-56
2022/06/27 02:55:48;;;;;;;21.08;15.43;;;17.50;99.90;;;;;;5070351;28;20053;-57
2022/06/27 02:58:35;;;;;;;20.08;15.60;;;17.40;99.90;;;;;;5071231;28;20041;-56
2022/06/27 03:01:02;;;;;;;18.73;14.32;;;17.50;99.90;;;;;;5070418;28;20076;-56
2022/06/27 03:03:32;;;;;;;11.75;9.20;;;17.50;99.90;;;;;;5070705;28;20110;-56
2022/06/27 03:06:01;;;;;;;13.45;9.70;;;17.50;99.90;;;;;;5070404;28;20062;-56
2022/06/27 03:08:40;;;;;;;8.02;6.70;;;17.00;99.90;;;;;;5070613;28;20098;-56
2022/06/27 03:11:07;;;;;;;11.18;7.75;;;17.40;99.90;;;;;;5070562;28;20040;-56
2022/06/27 03:13:33;;;;;;;11.25;9.15;;;17.40;99.90;;;;;;5070770;28;20040;-56
2022/06/27 03:15:59;;;;;;;11.65;8.65;;;17.30;99.90;;;;;;5069679;28;20058;-56
2022/06/27 03:18:25;;;;;;;10.00;8.20;;;17.30;99.90;;;;;;5070138;28;20098;-56
2022/06/27 03:20:51;;;;;;;11.02;7.55;;;17.20;99.90;;;;;;5070049;28;20495;-55
2022/06/27 03:23:18;;;;;;;7.80;6.90;;;17.30;99.90;;;;;;5070670;28;20049;-57
2022/06/27 03:25:44;;;;;;;9.38;6.38;;;15.90;99.90;;;;;;5070288;28;20117;-57
2022/06/27 03:28:10;;;;;;;9.15;6.70;;;18.00;99.90;;;;;;5070197;28;20124;-56
2022/06/27 03:30:36;;;;;;;10.77;6.55;;;17.00;99.90;;;;;;5070413;28;20055;-56
2022/06/27 03:33:02;;;;;;;8.82;6.95;;;16.90;99.90;;;;;;5070029;28;20055;-57
2022/06/27 03:35:28;;;;;;;11.65;8.50;;;16.80;99.90;;;;;;5069968;28;20044;-56
2022/06/27 03:37:53;;;;;;;14.18;9.88;;;16.40;99.90;;;;;;5070149;28;20526;-56
2022/06/27 03:40:19;;;;;;;11.63;9.32;;;16.80;99.90;;;;;;5070541;28;20048;-56
2022/06/27 03:42:45;;;;;;;12.30;9.45;;;16.60;99.90;;;;;;5051882;28;20048;-56
2022/06/27 03:45:11;;;;;;;10.35;7.80;;;16.80;99.90;;;;;;5070436;28;20055;-56
2022/06/27 03:47:50;;;;;;;9.35;6.50;;;16.80;99.90;;;;;;5052006;28;20098;-56
2022/06/27 03:50:17;;;;;;;10.90;6.38;;;16.80;99.90;;;;;;5070217;28;20050;-56
2022/06/27 03:52:43;;;;;;;7.88;6.03;;;16.80;99.90;;;;;;5051962;28;20080;-57
2022/06/27 03:55:10;;;;;;;8.27;6.30;;;16.70;99.90;;;;;;5052582;28;20119;-56
2022/06/27 03:57:49;;;;;;;10.88;6.82;;;16.80;99.90;;;;;;5069990;28;20400;-56
2022/06/27 04:00:16;;;;;;;10.25;7.85;;;16.70;99.90;;;;;;5070043;28;20080;-57
2022/06/27 04:02:41;;;;;;;12.52;8.50;;;16.50;99.90;;;;;;5070233;28;20056;-56
2022/06/27 04:05:08;;;;;;;23.85;9.32;;;16.80;99.90;;;;;;5051655;28;20049;-56
2022/06/27 04:07:34;;;;;;;11.85;8.88;;;15.50;99.90;;;;;;5069667;28;20103;-56
2022/06/27 04:10:00;;;;;;;12.93;10.00;;;16.60;99.90;;;;;;5052019;28;20130;-56
2022/06/27 04:12:26;;;;;;;12.73;10.10;;;17.60;99.90;;;;;;5070469;28;20499;-56
2022/06/27 04:14:52;;;;;;;16.30;11.57;;;16.50;99.90;;;;;;5069692;28;20377;-56
2022/06/27 04:17:17;;;;;;;15.90;10.07;;;16.40;99.90;;;;;;5070165;28;20054;-57
2022/06/27 04:19:43;;;;;;;11.57;8.65;;;16.50;99.90;;;;;;5070213;28;20075;-56
2022/06/27 04:22:09;;;;;;;12.25;7.10;;;16.50;99.90;;;;;;5074379;28;20055;-56
2022/06/27 04:24:35;;;;;;;8.80;6.43;;;16.50;99.90;;;;;;5073925;28;20049;-56
2022/06/27 04:27:02;;;;;;;8.18;6.63;;;16.50;99.90;;;;;;5073155;28;20044;-56
2022/06/27 04:29:29;;;;;;;7.60;6.43;;;16.20;99.90;;;;;;5073359;28;20098;-56
2022/06/27 04:31:55;;;;;;;8.77;6.82;;;16.60;99.90;;;;;;5072771;28;20052;-56
2022/06/27 04:34:21;;;;;;;8.68;6.90;;;16.40;99.90;;;;;;5073598;28;20118;-56
2022/06/27 04:36:47;;;;;;;8.13;6.55;;;16.20;99.90;;;;;;5073119;28;20052;-57
2022/06/27 04:39:15;;;;;;;9.40;6.43;;;16.40;99.90;;;;;;5055376;28;20569;-56
2022/06/27 04:41:46;;;;;;;9.90;6.90;;;16.20;99.90;;;;;;5072898;28;20464;-57
2022/06/27 04:44:12;;;;;;;8.05;6.93;;;16.10;99.90;;;;;;5073627;28;20052;-56
2022/06/27 04:46:40;;;;;;;12.07;8.30;;;16.30;99.90;;;;;;5072776;28;20040;-56
2022/06/27 04:49:05;;;;;;;9.38;8.07;;;16.20;99.90;;;;;;5038340;28;20470;-56
2022/06/27 04:51:32;;;;;;;12.13;8.77;;;16.60;99.90;;;;;;5072891;28;20044;-56
2022/06/27 04:53:58;;;;;;;11.18;9.13;;;16.00;99.90;;;;;;5072786;28;20166;-56
2022/06/27 04:56:24;;;;;;;9.95;8.48;;;16.30;99.90;;;;;;5072779;28;20127;-56
2022/06/27 04:58:50;;;;;;;10.05;8.57;;;16.30;99.90;;;;;;5072669;28;20564;-56
2022/06/27 05:01:15;;;;;;;9.05;7.47;;;16.30;99.90;;;;;;5072449;28;20044;-56
2022/06/27 05:03:41;;;;;;;9.52;7.07;;;16.40;99.90;;;;;;5054809;28;20085;-56
2022/06/27 05:06:07;;;;;;;9.63;7.55;;;16.40;99.90;;;;;;5072556;28;20334;-56
2022/06/27 05:08:33;;;;;;;9.77;6.55;;;16.40;99.90;;;;;;5055136;28;20047;-56
2022/06/27 05:10:58;;;;;;;8.48;6.00;;;16.00;99.90;;;;;;5072010;28;20052;-56
2022/06/27 05:13:24;;;;;;;7.45;5.88;;;16.30;99.90;;;;;;5072978;28;20048;-56
2022/06/27 05:15:51;;;;;;;7.50;5.53;;;16.00;99.90;;;;;;5072248;28;20072;-56
2022/06/27 05:18:17;;;;;;;8.05;5.20;;;;;;;;;;5072912;28;20060;-56
2022/06/27 05:20:43;;;;;;;7.38;4.80;;;16.30;99.90;;;;;;5072232;28;20134;-56
2022/06/27 05:23:09;;;;;;;5.50;4.00;;;16.90;99.90;;;;;;5072905;28;20393;-56
2022/06/27 05:25:35;;;;;;;4.93;3.72;;;16.20;99.90;;;;;;5072495;28;20095;-56
2022/06/27 05:28:03;;;;;;;4.57;4.00;;;16.30;99.90;;;;;;5072103;28;20415;-56
2022/06/27 05:30:30;;;;;;;4.05;3.40;;;16.30;99.90;;;;;;5071688;28;20460;-56
2022/06/27 05:32:56;;;;;;;4.47;3.60;;;16.00;99.90;;;;;;5047356;28;20047;-56
2022/06/27 05:35:22;;;;;;;3.95;3.40;;;16.30;99.90;;;;;;5052543;28;20328;-56
2022/06/27 05:37:50;;;;;;;5.82;3.95;;;16.10;99.90;;;;;;5051616;28;20125;-56
2022/06/27 05:40:17;;;;;;;6.57;3.55;;;16.30;99.90;;;;;;5051847;28;20812;-57
2022/06/27 05:42:43;;;;;;;4.95;4.00;;;16.50;99.90;;;;;;5051841;28;20110;-57
2022/06/27 05:45:10;;;;;;;6.68;4.93;;;16.70;99.90;;;;;;5048887;28;20132;-57
2022/06/27 05:47:36;;;;;;;6.10;5.10;;;16.30;99.90;;;;;;5052039;28;20114;-57
2022/06/27 05:50:06;;;;;;;5.90;5.10;;;16.30;99.90;;;;;;5047928;28;20084;-57
2022/06/27 05:52:32;;;;;;;5.30;4.80;;;16.40;99.90;;;;;;5051412;28;20091;-57
2022/06/27 05:54:59;;;;;;;6.22;5.40;;;16.40;99.90;;;;;;5047259;28;20056;-57
2022/06/27 05:57:25;;;;;;;7.68;6.10;;;16.50;99.90;;;;;;5051624;28;20048;-57
2022/06/27 05:59:53;;;;;;;10.43;6.60;;;15.60;99.90;;;;;;5050982;28;20133;-57
2022/06/27 06:02:20;;;;;;;8.80;6.80;;;16.50;99.90;;;;;;5051773;28;20397;-56
2022/06/27 06:04:46;;;;;;;8.95;6.68;;;16.60;99.90;;;;;;5051077;28;20052;-56
2022/06/27 06:07:12;;;;;;;9.10;6.47;;;16.60;99.90;;;;;;5051601;28;20393;-56
2022/06/27 06:09:38;;;;;;;7.13;6.13;;;16.60;99.90;;;;;;5051973;28;20096;-56
2022/06/27 06:12:06;;;;;;;9.57;7.35;;;16.70;99.90;;;;;;5051075;28;20052;-56
2022/06/27 06:14:33;;;;;;;10.13;7.03;;;16.70;99.90;;;;;;5051678;28;20088;-56
2022/06/27 06:16:58;;;;;;;11.02;7.47;;;16.70;99.90;;;;;;5050847;28;20079;-56
2022/06/27 06:19:24;;;;;;;10.63;7.05;;;16.80;99.90;;;;;;5051421;28;20055;-56
2022/06/27 06:21:50;;;;;;;8.93;7.35;;;16.80;99.90;;;;;;5045127;28;20049;-57
2022/06/27 06:24:16;;;;;;;9.40;6.03;;;16.80;99.90;;;;;;5034040;28;20095;-57
2022/06/27 06:26:43;;;;;;;7.22;5.60;;;16.40;99.90;;;;;;5050978;28;20045;-56
2022/06/27 06:29:18;;;;;;;6.53;5.10;;;16.90;99.90;;;;;;5051076;28;20056;-57
2022/06/27 06:31:45;;;;;;;6.70;4.93;;;17.10;99.90;;;;;;5044103;28;20045;-57
2022/06/27 06:34:12;;;;;;;7.88;5.07;;;16.70;99.90;;;;;;5069263;28;20057;-57
2022/06/27 06:36:39;;;;;;;6.72;4.90;;;16.60;99.90;;;;;;5053314;28;20056;-57
2022/06/27 06:39:06;;;;;;;6.32;4.78;;;16.70;99.90;;;;;;5071075;28;20057;-56
2022/06/27 06:41:33;;;;;;;8.32;5.20;;;16.80;99.90;;;;;;5070683;28;20064;-56
2022/06/27 06:43:59;;;;;;;8.73;4.88;;;16.80;99.90;;;;;;5069577;28;20117;-56
2022/06/27 06:46:28;;;;;;;8.38;5.20;;;17.10;99.90;;;;;;5053311;28;20048;-56
2022/06/27 06:48:57;;;;;;;7.07;5.10;;;16.70;99.90;;;;;;5070081;28;20086;-56
2022/06/27 06:51:24;;;;;;;6.03;4.80;;;17.00;99.90;;;;;;5071119;28;20051;-56
2022/06/27 06:53:50;;;;;;;6.15;5.28;;;16.20;99.90;;;;;;5052264;28;20048;-56
2022/06/27 06:56:16;;;;;;;5.65;5.00;;;17.00;99.90;;;;;;5070868;28;20087;-56
2022/06/27 06:58:42;;;;;;;6.68;4.70;;;17.10;99.90;;;;;;5070569;28;20044;-56
2022/06/27 07:01:08;;;;;;;13.43;6.45;;;17.60;99.90;;;;;;5070569;28;20060;-57
2022/06/27 07:03:34;;;;;;;8.05;5.45;;;17.10;99.90;;;;;;5070679;28;20055;-57
2022/06/27 07:06:03;;;;;;;10.07;6.00;;;17.10;99.90;;;;;;5070671;28;20058;-57
2022/06/27 07:08:30;;;;;;;9.93;5.57;;;17.10;99.90;;;;;;5065733;28;20052;-56
2022/06/27 07:10:56;;;;;;;11.85;7.22;;;17.30;99.90;;;;;;5077882;28;20054;-56
2022/06/27 07:13:23;;;;;;;8.85;6.70;;;17.30;99.90;;;;;;5072380;28;20564;-56
2022/06/27 07:15:48;;;;;;;10.40;6.40;;;17.20;99.90;;;;;;5086594;28;20048;-54
2022/06/27 07:18:14;;;;;;;8.13;5.43;;;17.30;99.90;;;;;;5080102;28;20059;-56
2022/06/27 07:20:40;;;;;;;13.40;4.78;;;18.00;99.90;;;;;;5083762;28;20048;-56
2022/06/27 07:23:06;;;;;;;7.63;4.30;;;17.00;99.90;;;;;;5076565;28;20123;-56
2022/06/27 07:25:35;;;;;;;5.95;4.28;;;17.20;99.90;;;;;;5069630;28;20044;-56
2022/06/27 07:28:01;;;;;;;6.47;4.43;;;17.20;99.90;;;;;;5044522;28;20485;-56
2022/06/27 07:30:26;;;;;;;6.80;4.50;;;17.20;99.90;;;;;;5069359;28;20048;-56
2022/06/27 07:32:52;;;;;;;7.35;4.90;;;17.20;99.90;;;;;;5047045;28;20072;-56
2022/06/27 07:35:18;;;;;;;10.05;4.80;;;17.20;99.90;;;;;;5050006;28;20061;-56
2022/06/27 07:37:48;;;;;;;7.60;5.20;;;17.40;99.90;;;;;;5026582;28;20057;-56
2022/06/27 07:40:19;;;;;;;6.53;5.05;;;17.30;99.90;;;;;;5050180;28;20459;-56
2022/06/27 07:42:45;;;;;;;8.13;5.40;;;17.40;99.90;;;;;;5056201;28;20040;-56
2022/06/27 07:45:14;;;;;;;8.05;5.60;;;17.40;99.90;;;;;;5049492;28;20052;-56
2022/06/27 07:47:40;;;;;;;7.80;5.70;;;17.50;99.90;;;;;;5049731;28;20071;-56
2022/06/27 07:50:07;;;;;;;8.68;5.47;;;17.60;99.90;;;;;;5032241;28;20041;-56
2022/06/27 07:53:11;;;;;;;7.15;5.28;;;17.80;99.90;;;;;;5050119;28;20437;-56
2022/06/27 07:55:19;;;;;;;6.53;5.00;;;17.80;99.90;;;;;;5051715;28;20080;-56
2022/06/27 07:57:46;;;;;;;8.57;5.43;;;17.80;99.90;;;;;;5053756;28;20049;-56
2022/06/27 08:00:13;;;;;;;6.68;5.00;;;17.80;99.90;;;;;;5054133;28;20116;-56
2022/06/27 08:02:40;;;;;;;5.75;4.55;;;17.90;99.90;;;;;;5035381;28;20087;-57
2022/06/27 08:05:07;;;;;;;5.63;4.60;;;17.90;99.90;;;;;;5035729;28;20087;-56
2022/06/27 08:07:33;;;;;;;4.40;3.90;;;18.00;99.90;;;;;;5053995;28;20132;-56
2022/06/27 08:09:59;;;;;;;5.10;4.10;;;18.10;99.90;;;;;;5053037;28;20136;-56
2022/06/27 08:12:25;;;;;;;7.15;5.30;;;18.10;99.90;;;;;;5053503;28;20084;-56
2022/06/27 08:14:51;;;;;;;6.47;5.20;;;18.20;99.90;;;;;;5053579;28;20044;-56
2022/06/27 08:17:18;;;;;;;6.47;4.90;;;18.30;99.90;;;;;;5036183;28;20408;-57
2022/06/27 08:19:44;;;;;;;6.93;5.35;;;18.30;99.90;;;;;;5053303;28;20458;-56
2022/06/27 08:22:11;;;;;;;6.90;5.13;;;18.30;99.90;;;;;;5053641;28;20131;-57
2022/06/27 08:24:37;;;;;;;5.78;5.18;;;18.20;99.90;;;;;;5053003;28;20456;-56
2022/06/27 08:27:04;;;;;;;9.00;5.40;;;18.20;99.90;;;;;;5052849;28;20095;-57
2022/06/27 08:29:32;;;;;;;7.65;5.65;;;18.10;99.90;;;;;;5035538;28;20106;-56
2022/06/27 08:31:58;;;;;;;10.32;6.20;;;18.40;99.90;;;;;;5065144;28;20056;-57
2022/06/27 08:34:23;;;;;;;8.25;5.68;;;18.30;99.90;;;;;;5073268;28;20454;-56
2022/06/27 08:36:50;;;;;;;9.00;5.80;;;18.50;99.90;;;;;;5055011;28;20048;-56
2022/06/27 08:39:17;;;;;;;7.32;5.57;;;18.50;99.90;;;;;;5060002;28;20059;-56
2022/06/27 08:41:47;;;;;;;6.60;5.80;;;18.40;99.90;;;;;;5073064;28;20095;-56
2022/06/27 08:44:13;;;;;;;6.03;5.30;;;18.40;99.90;;;;;;5055289;28;20059;-57
2022/06/27 08:46:40;;;;;;;8.15;5.40;;;18.50;99.90;;;;;;5054615;28;20044;-56
2022/06/27 08:49:07;;;;;;;6.97;5.53;;;18.60;99.90;;;;;;5081476;28;20082;-57
2022/06/27 08:51:33;;;;;;;7.78;5.80;;;18.50;99.90;;;;;;5075555;28;20584;-56
2022/06/27 08:54:00;;;;;;;6.80;5.75;;;18.40;99.90;;;;;;5092505;28;20561;-56
2022/06/27 08:56:27;;;;;;;6.38;5.28;;;18.50;99.90;;;;;;5092553;28;20081;-57
2022/06/27 08:58:55;;;;;;;8.00;5.10;;;18.60;99.90;;;;;;5092839;28;20047;-57
2022/06/27 09:01:23;;;;;;;6.15;5.38;;;18.20;99.90;;;;;;5093218;28;20063;-57
2022/06/27 09:04:01;;;;;;;6.35;5.30;;;18.10;99.90;;;;;;5092624;28;20491;-57
2022/06/27 09:06:33;;;;;;;8.68;5.63;;;18.40;99.90;;;;;;5094397;28;20083;-57
2022/06/27 09:09:08;;;;;;;6.88;5.13;;;18.40;99.90;;;;;;5111706;28;20043;-57
2022/06/27 09:11:40;;;;;;;7.22;5.22;;;18.40;99.90;;;;;;5099852;28;20040;-56
2022/06/27 09:14:27;;;;;;;6.72;4.93;;;18.40;99.90;;;;;;5092888;28;20070;-56
2022/06/27 09:16:59;;;;;;;7.00;5.00;;;18.40;99.90;;;;;;5091937;28;20051;-56
2022/06/27 09:19:52;;;;;;;7.18;5.30;;;18.50;99.90;;;;;;5093043;28;20051;-56
2022/06/27 09:22:19;;;;;;;7.03;5.38;;;18.40;99.90;;;;;;5092241;28;20112;-57
2022/06/27 09:25:05;;;;;;;6.28;5.20;;;18.40;99.90;;;;;;5057617;28;20048;-56
2022/06/27 09:27:46;;;;;;;6.90;5.75;;;18.30;99.90;;;;;;5092274;28;20051;-56
2022/06/27 09:30:18;;;;;;;8.57;5.68;;;18.40;99.90;;;;;;5057836;28;20052;-56
2022/06/27 09:32:44;;;;;;;12.18;6.43;;;18.30;99.90;;;;;;5092101;28;20056;-56
2022/06/27 09:35:31;;;;;;;7.68;6.03;;;18.30;99.90;;;;;;5092321;28;20123;-56
2022/06/27 09:38:00;;;;;;;9.63;6.07;;;18.40;99.90;;;;;;5091782;28;20057;-56
2022/06/27 09:40:27;;;;;;;7.30;5.82;;;18.30;99.90;;;;;;5077290;28;20450;-56
2022/06/27 09:42:55;;;;;;;7.55;6.10;;;18.60;99.90;;;;;;5086124;28;20052;-56
2022/06/27 09:45:24;;;;;;;6.78;6.05;;;18.40;99.90;;;;;;5088286;28;20247;-56
2022/06/27 09:48:02;;;;;;;7.32;6.10;;;18.20;99.90;;;;;;5088607;28;20040;-57
2022/06/27 09:50:32;;;;;;;7.32;6.15;;;18.40;99.90;;;;;;5073655;28;20419;-56
2022/06/27 09:52:59;;;;;;;6.80;5.60;;;18.50;99.90;;;;;;5055543;28;20446;-56
2022/06/27 09:55:25;;;;;;;10.60;5.97;;;18.70;99.90;;;;;;5091992;28;20125;-57
2022/06/27 09:57:55;;;;;;;7.03;6.05;;;18.60;99.90;;;;;;5073427;28;20052;-56
2022/06/27 10:00:22;;;;;;;9.25;6.20;;;18.60;99.90;;;;;;5091314;28;20526;-57
2022/06/27 10:02:49;;;;;;;7.25;5.90;;;18.60;99.90;;;;;;5072722;28;20054;-57
2022/06/27 10:05:16;;;;;;;6.78;5.90;;;18.50;99.90;;;;;;5073523;28;20087;-57
2022/06/27 10:07:52;;;;;;;8.77;5.90;;;18.60;99.90;;;;;;5072391;28;20066;-57
2022/06/27 10:10:18;;;;;;;7.03;6.00;;;18.40;99.90;;;;;;5090820;28;20070;-56
2022/06/27 10:12:59;;;;;;;6.50;5.22;;;19.20;99.90;;;;;;5091131;28;20079;-57
2022/06/27 10:15:26;;;;;;;6.22;5.18;;;18.80;99.90;;;;;;5073104;28;20048;-56
2022/06/27 10:17:54;;;;;;;9.45;5.72;;;19.30;99.90;;;;;;5070162;28;20048;-56
2022/06/27 10:20:28;;;;;;;7.18;5.93;;;18.80;99.90;;;;;;5070876;28;20052;-56
2022/06/27 10:23:13;;;;;;;8.70;6.13;;;18.90;99.90;;;;;;5070911;28;20048;-56
2022/06/27 10:25:44;;;;;;;6.35;5.60;;;18.80;99.90;;;;;;5070746;28;20472;-56
2022/06/27 10:28:09;;;;;;;7.88;6.05;;;18.90;99.90;;;;;;5053274;28;20070;-56
2022/06/27 10:30:45;;;;;;;7.38;5.60;;;18.90;99.90;;;;;;5051204;28;20049;-56
2022/06/27 10:33:26;;;;;;;7.22;5.50;;;18.90;99.90;;;;;;5060133;28;20044;-56
2022/06/27 10:38:38;;;;;;;7.22;6.40;;;18.90;99.90;;;;;;5077350;28;20123;-56
2022/06/27 10:41:28;;;;;;;6.63;5.90;;;18.90;99.90;;;;;;5078512;28;20116;-56
2022/06/27 10:43:56;;;;;;;6.90;6.20;;;18.40;99.90;;;;;;5078969;28;20048;-56
2022/06/27 10:46:22;;;;;;;8.80;6.07;;;19.00;99.90;;;;;;5064196;28;20648;-56
2022/06/27 10:48:50;;;;;;;6.78;5.90;;;18.90;99.90;;;;;;5089577;28;20072;-56
2022/06/27 10:51:27;;;;;;;7.43;6.00;;;19.10;99.90;;;;;;5089467;28;20048;-56
2022/06/27 10:54:04;;;;;;;7.72;6.13;;;19.10;99.90;;;;;;5090383;28;20051;-56
2022/06/27 10:56:42;;;;;;;7.00;5.80;;;19.20;99.90;;;;;;5089831;28;20044;-56
2022/06/27 10:59:14;;;;;;;6.82;5.55;;;19.20;99.90;;;;;;5072280;28;20052;-56
2022/06/27 11:01:50;;;;;;;7.07;5.60;;;19.20;99.90;;;;;;5089877;28;20048;-55
2022/06/27 11:04:25;;;;;;;6.50;5.43;;;19.20;99.90;;;;;;5089292;28;20122;-57
2022/06/27 11:06:56;;;;;;;7.05;6.13;;;19.40;99.90;;;;;;5089382;28;20078;-56
2022/06/27 11:09:40;;;;;;;7.75;6.43;;;19.20;99.90;;;;;;5089843;28;20044;-56
2022/06/27 11:12:08;;;;;;;8.20;5.45;;;19.30;99.90;;;;;;5090032;28;20055;-56
2022/06/27 11:14:45;;;;;;;6.95;5.47;;;19.30;99.90;;;;;;5089903;28;20079;-56
2022/06/27 11:17:41;;;;;;;7.13;5.57;;;19.50;99.90;;;;;;5071144;28;20583;-56
2022/06/27 11:20:12;;;;;;;7.25;5.30;;;19.40;99.90;;;;;;5069763;28;20060;-56
2022/06/27 11:22:39;;;;;;;6.22;5.53;;;19.40;99.90;;;;;;5071693;28;20052;-56
2022/06/27 11:25:05;;;;;;;7.68;5.43;;;19.50;99.90;;;;;;5090200;28;20097;-56
2022/06/27 11:27:49;;;;;;;6.95;5.40;;;19.50;99.90;;;;;;5071455;28;20671;-56
2022/06/27 11:33:18;;;;;;;8.25;5.13;;;19.80;99.90;;;;;;5068895;28;20121;-57
2022/06/27 11:35:45;;;;;;;6.82;5.10;;;19.80;99.90;;;;;;5069173;28;20041;-56
2022/06/27 11:38:11;;;;;;;6.72;5.20;;;19.50;99.90;;;;;;5051602;28;20052;-57
2022/06/27 11:40:37;;;;;;;6.55;5.18;;;19.90;99.90;;;;;;5069072;28;20482;-56
2022/06/27 11:43:03;;;;;;;6.63;5.03;;;19.90;99.90;;;;;;5051035;28;20241;-57
2022/06/27 11:45:40;;;;;;;6.20;5.05;;;20.00;99.90;;;;;;5069255;28;20044;-57
2022/06/27 11:48:12;;;;;;;6.05;5.07;;;19.90;99.90;;;;;;5068374;28;20049;-57
2022/06/27 11:50:38;;;;;;;8.15;5.00;;;19.90;99.90;;;;;;5069506;28;20047;-57
2022/06/27 11:53:04;;;;;;;7.03;4.95;;;19.90;99.90;;;;;;5069190;28;20052;-57
2022/06/27 11:55:31;;;;;;;6.60;4.85;;;19.90;99.90;;;;;;5069055;28;20045;-58
2022/06/27 11:57:58;;;;;;;5.70;4.70;;;19.90;99.90;;;;;;5050723;28;20053;-57
2022/06/27 12:00:30;;;;;;;6.07;4.60;;;19.90;99.90;;;;;;5049676;28;20511;-56
2022/06/27 12:03:04;;;;;;;6.60;4.70;;;19.90;99.90;;;;;;5048044;28;20128;-57
2022/06/27 12:05:30;;;;;;;6.13;4.40;;;19.50;99.90;;;;;;5048907;28;20119;-57
2022/06/27 12:08:06;;;;;;;5.38;4.50;;;19.80;99.90;;;;;;5048160;28;20053;-57
2022/06/27 12:10:35;;;;;;;6.47;4.40;;;19.80;99.90;;;;;;5068032;28;20125;-57
2022/06/27 12:13:01;;;;;;;5.45;4.22;;;19.80;99.90;;;;;;5062348;28;20047;-57
2022/06/27 12:15:28;;;;;;;7.28;4.40;;;19.80;99.90;;;;;;5053243;28;20045;-57
2022/06/27 12:17:58;;;;;;;5.50;4.28;;;19.80;99.90;;;;;;5064471;28;20760;-57
2022/06/27 12:20:25;;;;;;;5.72;4.25;;;19.80;99.90;;;;;;5057622;28;20056;-57
2022/06/27 12:22:51;;;;;;;6.47;4.32;;;19.90;99.90;;;;;;5047398;28;20045;-57
2022/06/27 12:25:18;;;;;;;5.38;4.45;;;19.80;99.90;;;;;;5065361;28;20048;-57
2022/06/27 12:27:43;;;;;;;5.13;4.20;;;19.90;99.90;;;;;;5065057;28;20076;-57
2022/06/27 12:30:11;;;;;;;5.47;3.88;;;19.50;99.90;;;;;;5048003;28;20099;-57
2022/06/27 12:32:36;;;;;;;4.55;3.50;;;19.90;99.90;;;;;;5044203;28;20557;-57
2022/06/27 12:35:03;;;;;;;5.80;3.40;;;19.90;99.90;;;;;;5082576;28;20048;-56
2022/06/27 12:37:28;;;;;;;4.80;3.33;;;19.80;99.90;;;;;;5077202;28;20068;-57
2022/06/27 12:39:54;;;;;;;5.30;3.50;;;20.10;99.90;;;;;;5064840;28;20048;-57
2022/06/27 12:42:20;;;;;;;4.18;3.25;;;19.90;99.90;;;;;;5069392;28;20044;-56
2022/06/27 12:44:45;;;;;;;4.45;3.65;;;19.90;99.90;;;;;;5073178;28;20117;-57
2022/06/27 12:47:11;;;;;;;4.15;3.35;;;19.80;99.90;;;;;;5088960;28;20087;-57
2022/06/27 12:49:37;;;;;;;4.15;3.50;;;19.70;99.90;;;;;;5081969;28;20328;-57
2022/06/27 12:52:04;;;;;;;7.35;3.30;;;19.80;99.90;;;;;;5068735;28;20049;-57
2022/06/27 12:54:29;;;;;;;3.67;3.28;;;19.50;99.90;;;;;;5069124;28;20076;-57